createdAt,value
2022-11-01T00:01:32.930Z,9.33
2022-11-01T00:05:35.845Z,11.47
2022-11-01T00:09:37.877Z,8.57
2022-11-01T00:13:39.561Z,13.10
2022-11-01T00:17:40.989Z,8.47
2022-11-01T00:21:43.979Z,6.43
2022-11-01T00:25:45.435Z,12.27
2022-11-01T00:29:46.839Z,7.17
2022-11-01T00:33:48.599Z,10.70
2022-11-01T00:37:51.336Z,12.27
2022-11-01T00:41:52.776Z,7.13
2022-11-01T00:45:54.188Z,10.53
2022-11-01T00:49:55.760Z,7.67
2022-11-01T00:53:58.504Z,7.17
2022-11-01T00:58:00.166Z,8.93
2022-11-01T01:02:02.152Z,11.40
2022-11-01T01:06:04.164Z,12.60
2022-11-01T01:10:08.280Z,10.67
2022-11-01T01:14:09.883Z,9.37
2022-11-01T01:18:11.959Z,8.23
2022-11-01T01:22:13.380Z,5.87
2022-11-01T01:26:16.144Z,8.03
2022-11-01T01:30:17.723Z,9.57
2022-11-01T01:34:19.304Z,10.47
2022-11-01T01:38:20.782Z,6.10
2022-11-01T01:42:29.132Z,7.70
2022-11-01T01:46:30.607Z,8.80
2022-11-01T01:50:36.517Z,8.23
2022-11-01T01:54:38.339Z,5.93
2022-11-01T01:58:44.994Z,9.83
2022-11-01T02:02:46.403Z,5.93
2022-11-01T02:06:48.515Z,6.60
2022-11-01T02:10:50.272Z,4.97
2022-11-01T02:14:53.115Z,5.00
2022-11-01T02:19:09.172Z,8.37
2022-11-01T02:23:40.383Z,5.50
2022-11-01T02:27:59.847Z,6.07
2022-11-01T02:32:14.340Z,3.27
2022-11-01T02:36:21.910Z,6.17
2022-11-01T02:40:28.898Z,7.47
2022-11-01T02:44:35.464Z,5.03
2022-11-01T02:48:38.695Z,4.10
2022-11-01T02:52:41.291Z,6.17
2022-11-01T02:56:43.840Z,8.27
2022-11-01T03:00:45.386Z,7.03
2022-11-01T03:04:48.435Z,6.27
2022-11-01T03:08:56.463Z,7.60
2022-11-01T03:13:08.462Z,7.27
2022-11-01T03:17:14.908Z,6.07
2022-11-01T03:21:23.816Z,5.10
2022-11-01T03:25:33.350Z,5.63
2022-11-01T03:29:37.482Z,4.70
2022-11-01T03:33:42.841Z,7.60
2022-11-01T03:37:48.827Z,7.50
2022-11-01T03:41:53.922Z,7.37
2022-11-01T03:45:55.501Z,5.97
2022-11-01T03:50:14.586Z,6.10
2022-11-01T03:54:17.324Z,9.30
2022-11-01T03:58:18.907Z,6.57
2022-11-01T04:02:20.332Z,5.23
2022-11-01T04:06:21.738Z,5.10
2022-11-01T04:10:26.703Z,8.40
2022-11-01T04:14:28.185Z,4.10
2022-11-01T04:18:29.757Z,9.27
2022-11-01T04:22:31.545Z,7.13
2022-11-01T04:26:35.627Z,7.07
2022-11-01T04:30:36.988Z,6.10
2022-11-01T04:34:38.412Z,7.23
2022-11-01T04:38:39.776Z,8.43
2022-11-01T04:42:42.511Z,5.03
2022-11-01T04:46:44.071Z,4.23
2022-11-01T04:50:45.479Z,8.50
2022-11-01T04:54:46.931Z,6.40
2022-11-01T04:58:49.693Z,7.37
2022-11-01T05:02:51.755Z,5.80
2022-11-01T05:06:53.108Z,6.07
2022-11-01T05:10:55.955Z,7.60
2022-11-01T05:14:58.775Z,6.87
2022-11-01T05:19:00.180Z,6.90
2022-11-01T05:23:03.425Z,4.03
2022-11-01T05:27:05.228Z,7.93
2022-11-01T05:31:09.172Z,3.43
2022-11-01T05:35:10.617Z,4.47
2022-11-01T05:39:12.462Z,6.60
2022-11-01T05:43:14.507Z,3.80
2022-11-01T05:47:17.706Z,4.70
2022-11-01T05:51:19.337Z,5.40
2022-11-01T05:55:20.750Z,2.90
2022-11-01T05:59:22.229Z,6.93
2022-11-01T06:03:25.230Z,4.23
2022-11-01T06:07:26.736Z,3.20
2022-11-01T06:11:28.893Z,6.03
2022-11-01T06:15:33.146Z,2.50
2022-11-01T06:19:40.803Z,6.90
2022-11-01T06:23:46.274Z,2.13
2022-11-01T06:27:48.202Z,3.30
2022-11-01T06:31:49.766Z,2.00
2022-11-01T06:35:52.546Z,5.80
2022-11-01T06:39:53.958Z,1.83
2022-11-01T06:43:55.348Z,2.73
2022-11-01T06:47:56.950Z,4.10
2022-11-01T06:51:59.750Z,4.10
2022-11-01T06:56:01.473Z,1.70
2022-11-01T07:00:04.485Z,2.00
2022-11-01T07:04:08.422Z,3.23
2022-11-01T07:08:12.970Z,3.23
2022-11-01T07:12:14.413Z,2.50
2022-11-01T07:16:15.870Z,1.60
2022-11-01T07:20:17.503Z,5.03
2022-11-01T07:24:20.397Z,5.70
2022-11-01T07:28:22.036Z,9.67
2022-11-01T07:32:23.453Z,3.07
2022-11-01T07:36:25.034Z,3.93
2022-11-01T07:40:28.266Z,3.07
2022-11-01T07:44:29.881Z,3.43
2022-11-01T07:48:31.428Z,3.77
2022-11-01T07:52:32.949Z,5.00
2022-11-01T07:56:36.077Z,5.20
2022-11-01T08:00:38.731Z,4.73
2022-11-01T08:04:40.302Z,5.77
2022-11-01T08:08:41.682Z,10.30
2022-11-01T08:12:44.597Z,7.70
2022-11-01T08:16:49.086Z,8.67
2022-11-01T08:20:51.112Z,11.40
2022-11-01T08:24:52.607Z,12.33
2022-11-01T08:28:55.632Z,8.90
2022-11-01T08:33:02.031Z,7.40
2022-11-01T08:37:03.715Z,8.20
2022-11-01T08:41:05.320Z,6.27
2022-11-01T08:45:08.312Z,6.47
2022-11-01T08:49:09.892Z,7.37
2022-11-01T08:53:12.923Z,7.70
2022-11-01T08:57:14.516Z,5.53
2022-11-01T09:01:17.456Z,9.13
2022-11-01T09:05:19.156Z,8.70
2022-11-01T09:09:20.842Z,7.30
2022-11-01T09:13:22.459Z,7.77
2022-11-01T09:17:25.370Z,6.00
2022-11-01T09:21:31.605Z,6.13
2022-11-01T09:25:33.813Z,7.20
2022-11-01T09:29:35.430Z,13.20
2022-11-01T09:33:38.467Z,6.53
2022-11-01T09:37:39.948Z,4.73
2022-11-01T09:41:43.754Z,7.87
2022-11-01T09:45:45.576Z,10.53
2022-11-01T09:49:51.659Z,6.30
2022-11-01T09:53:56.335Z,7.63
2022-11-01T09:58:05.052Z,6.83
2022-11-01T10:02:35.859Z,4.80
2022-11-01T10:06:43.718Z,6.67
2022-11-01T10:10:52.260Z,4.70
2022-11-01T10:15:04.933Z,5.03
2022-11-01T10:19:11.864Z,4.23
2022-11-01T10:23:16.409Z,4.67
2022-11-01T10:27:22.613Z,5.87
2022-11-01T10:31:27.202Z,6.70
2022-11-01T10:35:32.187Z,5.70
2022-11-01T10:39:57.000Z,6.67
2022-11-01T10:44:03.759Z,7.57
2022-11-01T10:48:05.692Z,6.60
2022-11-01T10:52:11.159Z,5.10
2022-11-01T10:56:21.298Z,4.80
2022-11-01T11:00:25.708Z,4.27
2022-11-01T11:04:27.344Z,6.40
2022-11-01T11:08:29.125Z,6.87
2022-11-01T11:12:31.971Z,3.40
2022-11-01T11:16:38.972Z,4.13
2022-11-01T11:20:40.520Z,7.97
2022-11-01T11:24:44.135Z,7.03
2022-11-01T11:28:51.384Z,7.37
2022-11-01T11:32:53.336Z,9.33
2022-11-01T11:36:55.370Z,7.27
2022-11-01T11:40:56.795Z,6.05
2022-11-01T11:45:15.410Z,6.67
2022-11-01T11:49:26.790Z,6.47
2022-11-01T11:53:28.965Z,5.60
2022-11-01T11:57:30.613Z,5.43
2022-11-01T12:01:33.462Z,6.83
2022-11-01T12:05:35.212Z,8.53
2022-11-01T12:09:44.515Z,7.53
2022-11-01T12:13:59.937Z,6.23
2022-11-01T12:18:15.633Z,6.33
2022-11-01T12:22:19.230Z,7.00
2022-11-01T12:26:22.617Z,10.77
2022-11-01T12:30:27.173Z,5.37
2022-11-01T12:34:37.146Z,6.37
2022-11-01T12:38:45.872Z,8.17
2022-11-01T12:42:50.903Z,10.10
2022-11-01T12:46:57.833Z,7.97
2022-11-01T12:51:06.005Z,6.73
2022-11-01T12:55:17.958Z,4.90
2022-11-01T12:59:27.460Z,7.23
2022-11-01T13:03:42.702Z,6.57
2022-11-01T13:07:55.880Z,7.33
2022-11-01T13:12:05.138Z,7.83
2022-11-01T13:16:12.828Z,5.47
2022-11-01T13:20:28.961Z,5.27
2022-11-01T13:24:39.517Z,8.43
2022-11-01T13:28:52.749Z,5.47
2022-11-01T13:32:59.524Z,7.87
2022-11-01T13:37:06.800Z,6.50
2022-11-01T13:41:19.931Z,6.33
2022-11-01T13:45:49.672Z,6.73
2022-11-01T13:50:08.675Z,9.60
2022-11-01T13:54:20.331Z,5.47
2022-11-01T13:58:23.972Z,4.60
2022-11-01T14:02:51.328Z,5.77
2022-11-01T14:07:05.994Z,7.03
2022-11-01T14:11:11.309Z,5.83
2022-11-01T14:15:25.126Z,6.53
2022-11-01T14:19:26.624Z,7.30
2022-11-01T14:24:01.506Z,6.47
2022-11-01T14:28:20.824Z,5.23
2022-11-01T14:32:26.446Z,5.83
2022-11-01T14:36:32.858Z,4.67
2022-11-01T14:40:38.460Z,6.77
2022-11-01T14:44:46.863Z,6.33
2022-11-01T14:48:58.196Z,7.40
2022-11-01T14:53:06.924Z,5.73
2022-11-01T14:57:20.181Z,6.70
2022-11-01T15:01:21.836Z,6.40
2022-11-01T15:05:25.350Z,10.20
2022-11-01T15:09:28.489Z,8.73
2022-11-01T15:13:32.494Z,7.93
2022-11-01T15:17:34.869Z,8.73
2022-11-01T15:21:46.677Z,7.37
2022-11-01T15:25:51.493Z,7.07
2022-11-01T15:29:55.283Z,5.43
2022-11-01T15:33:58.815Z,6.73
2022-11-01T15:38:01.585Z,6.73
2022-11-01T15:42:13.642Z,6.43
2022-11-01T15:46:15.127Z,6.80
2022-11-01T15:50:17.227Z,9.23
2022-11-01T15:54:33.603Z,12.10
2022-11-01T15:58:38.231Z,6.83
2022-11-01T16:02:44.954Z,6.50
2022-11-01T16:06:51.502Z,6.90
2022-11-01T16:10:55.076Z,8.00
2022-11-01T16:15:00.191Z,7.27
2022-11-01T16:19:01.639Z,7.37
2022-11-01T16:23:04.243Z,7.47
2022-11-01T16:27:25.770Z,9.10
2022-11-01T16:31:28.527Z,6.13
2022-11-01T16:35:32.118Z,7.93
2022-11-01T16:39:33.704Z,5.17
2022-11-01T16:43:36.600Z,8.20
2022-11-01T16:47:38.008Z,7.70
2022-11-01T16:51:39.640Z,6.37
2022-11-01T16:55:41.355Z,5.70
2022-11-01T16:59:44.160Z,6.77
2022-11-01T17:03:45.818Z,6.80
2022-11-01T17:07:47.689Z,9.37
2022-11-01T17:11:51.310Z,11.53
2022-11-01T17:15:54.748Z,7.37
2022-11-01T17:20:00.477Z,8.57
2022-11-01T17:24:02.644Z,6.60
2022-11-01T17:28:04.750Z,7.20
2022-11-01T17:32:07.643Z,5.00
2022-11-01T17:36:13.285Z,7.60
2022-11-01T17:40:18.271Z,7.93
2022-11-01T17:44:19.672Z,13.17
2022-11-01T17:48:22.438Z,8.07
2022-11-01T17:52:23.851Z,7.77
2022-11-01T17:56:25.548Z,10.33
2022-11-01T18:00:27.178Z,10.00
2022-11-01T18:04:35.476Z,10.33
2022-11-01T18:08:44.175Z,7.13
2022-11-01T18:13:00.574Z,8.97
2022-11-01T18:17:15.635Z,7.77
2022-11-01T18:21:25.747Z,8.67
2022-11-01T18:25:31.454Z,9.20
2022-11-01T18:29:39.905Z,6.80
2022-11-01T18:33:47.594Z,10.30
2022-11-01T18:38:02.701Z,9.23
2022-11-01T18:42:08.262Z,8.83
2022-11-01T18:46:29.666Z,11.77
2022-11-01T18:50:31.330Z,5.33
2022-11-01T18:54:34.590Z,9.90
2022-11-01T18:58:37.006Z,8.60
2022-11-01T19:02:38.744Z,13.40
2022-11-01T19:06:40.386Z,10.73
2022-11-01T19:10:43.203Z,11.13
2022-11-01T19:14:47.622Z,8.53
2022-11-01T19:18:49.526Z,12.77
2022-11-01T19:22:54.926Z,10.57
2022-11-01T19:26:58.859Z,5.43
2022-11-01T19:31:06.682Z,11.33
2022-11-01T19:35:16.866Z,4.73
2022-11-01T19:39:23.906Z,9.33
2022-11-01T19:43:27.870Z,9.30
2022-11-01T19:47:36.990Z,14.73
2022-11-01T19:51:38.505Z,8.90
2022-11-01T19:55:45.255Z,9.23
2022-11-01T19:59:52.321Z,12.57
2022-11-01T20:03:56.130Z,10.70
2022-11-01T20:08:13.085Z,11.83
2022-11-01T20:12:18.681Z,9.30
2022-11-01T20:16:24.543Z,10.67
2022-11-01T20:20:26.028Z,14.63
2022-11-01T20:24:27.664Z,12.83
2022-11-01T20:28:29.301Z,11.50
2022-11-01T20:32:32.726Z,11.10
2022-11-01T20:36:34.129Z,8.37
2022-11-01T20:40:36.091Z,16.20
2022-11-01T20:44:37.525Z,10.73
2022-11-01T20:48:40.546Z,10.47
2022-11-01T20:52:42.018Z,12.30
2022-11-01T20:56:43.430Z,13.73
2022-11-01T21:00:45.379Z,16.13
2022-11-01T21:04:55.058Z,15.00
2022-11-01T21:08:57.271Z,11.63
2022-11-01T21:13:00.423Z,16.33
2022-11-01T21:17:11.377Z,9.77
2022-11-01T21:21:35.889Z,10.30
2022-11-01T21:25:38.692Z,18.17
2022-11-01T21:29:42.842Z,11.57
2022-11-01T21:33:51.372Z,12.73
2022-11-01T21:37:54.883Z,14.37
2022-11-01T21:41:57.892Z,13.03
2022-11-01T21:45:59.295Z,10.40
2022-11-01T21:50:00.883Z,14.77
2022-11-01T21:54:04.757Z,9.77
2022-11-01T21:58:06.340Z,8.63
2022-11-01T22:02:10.763Z,7.47
2022-11-01T22:06:12.240Z,9.40
2022-11-01T22:10:15.322Z,10.27
2022-11-01T22:14:16.788Z,11.53
2022-11-01T22:18:23.857Z,12.30
2022-11-01T22:22:26.566Z,11.90
2022-11-01T22:26:29.715Z,9.50
2022-11-01T22:30:31.121Z,8.07
2022-11-01T22:34:32.900Z,9.97
2022-11-01T22:38:38.659Z,10.07
2022-11-01T22:42:41.646Z,8.50
2022-11-01T22:46:46.484Z,14.23
2022-11-01T22:50:48.360Z,11.33
2022-11-01T22:54:52.048Z,12.67
2022-11-01T22:58:55.161Z,8.57
2022-11-01T23:03:00.793Z,13.50
2022-11-01T23:07:05.898Z,12.27
2022-11-01T23:11:13.271Z,10.70
2022-11-01T23:15:25.123Z,10.33
2022-11-01T23:19:27.152Z,12.93
2022-11-01T23:23:28.833Z,10.03
2022-11-01T23:27:30.343Z,11.63
2022-11-01T23:31:33.257Z,11.33
2022-11-01T23:35:34.699Z,11.53
2022-11-01T23:39:37.571Z,9.07
2022-11-01T23:43:40.858Z,9.47
2022-11-01T23:47:43.636Z,7.30
2022-11-01T23:51:45.226Z,8.63
2022-11-01T23:55:49.546Z,11.03
2022-11-01T23:59:51.714Z,11.87
